Time;durP1;ratioP1;P1;durP2;ratioP2;P2;SDS_P1;SDS_P2;PMS_P1;PMS_P2;Temp;Humidity;BMP_temperature;BMP_pressure;BME280_temperature;BME280_humidity;BME280_pressure;Samples;Min_cycle;Max_cycle;Signal;HPM_P1;HPM_P2
2022/07/18 00:00:09;;;;;;;1.67;0.87;;;14.10;99.90;;;;;;4916383;29;20614;-82
2022/07/18 00:02:35;;;;;;;1.30;0.63;;;14.20;99.90;;;;;;4917612;29;20182;-81
2022/07/18 00:05:00;;;;;;;2.33;0.70;;;14.10;99.90;;;;;;4917621;29;20444;-86
2022/07/18 00:07:26;;;;;;;2.00;0.60;;;14.10;99.90;;;;;;4917568;29;20206;-85
2022/07/18 00:09:51;;;;;;;1.37;0.70;;;14.10;99.90;;;;;;4916931;29;20222;-81
2022/07/18 00:12:17;;;;;;;0.80;0.40;;;14.10;99.90;;;;;;4917398;29;20225;-81
2022/07/18 00:14:43;;;;;;;1.57;0.33;;;14.10;99.90;;;;;;4917398;29;20212;-81
2022/07/18 00:17:09;;;;;;;3.30;1.43;;;14.10;99.90;;;;;;4917449;29;20189;-81
2022/07/18 00:19:35;;;;;;;2.07;1.07;;;14.10;99.90;;;;;;4931950;29;20423;-81
2022/07/18 00:22:01;;;;;;;1.40;0.90;;;14.10;99.90;;;;;;4917356;29;20170;-82
2022/07/18 00:24:27;;;;;;;2.83;1.33;;;14.20;99.90;;;;;;4917305;29;20422;-82
2022/07/18 00:26:53;;;;;;;1.80;0.43;;;14.20;99.90;;;;;;4916906;29;20429;-82
2022/07/18 00:29:18;;;;;;;0.97;0.50;;;14.10;99.90;;;;;;4917170;29;20643;-81
2022/07/18 00:31:44;;;;;;;1.77;0.70;;;14.10;99.90;;;;;;4917066;29;20217;-81
2022/07/18 00:34:09;;;;;;;1.93;0.90;;;14.10;99.90;;;;;;4917206;29;20175;-82
2022/07/18 00:36:35;;;;;;;1.63;0.97;;;14.00;99.90;;;;;;4917097;29;20181;-83
2022/07/18 00:39:01;;;;;;;2.50;0.83;;;14.00;99.90;;;;;;4917145;29;20647;-83
2022/07/18 00:41:27;;;;;;;1.13;0.70;;;14.00;99.90;;;;;;4931350;29;20428;-83
2022/07/18 00:43:53;;;;;;;1.70;0.63;;;13.90;99.90;;;;;;4916962;29;20177;-83
2022/07/18 00:46:26;;;;;;;1.80;0.83;;;13.90;99.90;;;;;;4916617;29;20535;-82
2022/07/18 00:48:51;;;;;;;1.90;0.50;;;13.90;99.90;;;;;;4916894;29;20424;-83
2022/07/18 00:51:18;;;;;;;1.27;0.40;;;13.80;99.90;;;;;;4915658;29;20482;-83
2022/07/18 00:53:44;;;;;;;1.67;0.90;;;13.90;99.90;;;;;;4916827;29;20634;-82
2022/07/18 00:56:11;;;;;;;0.93;0.50;;;13.90;99.90;;;;;;4915338;29;20450;-86
2022/07/18 00:58:36;;;;;;;1.37;0.70;;;13.80;99.90;;;;;;4918428;29;20483;-82
2022/07/18 01:03:47;;;;;;;2.10;1.07;;;13.90;99.90;;;;;;4923465;29;20185;-82
2022/07/18 01:06:12;;;;;;;2.40;1.10;;;13.90;99.90;;;;;;4923098;29;20422;-83
2022/07/18 01:08:41;;;;;;;1.73;0.90;;;13.80;99.90;;;;;;4923137;29;20176;-83
2022/07/18 01:11:07;;;;;;;2.10;1.20;;;13.80;99.90;;;;;;4922486;29;20230;-82
2022/07/18 01:13:33;;;;;;;1.70;0.77;;;13.70;99.90;;;;;;4923046;29;20412;-83
2022/07/18 01:15:58;;;;;;;1.23;0.30;;;13.70;99.90;;;;;;4923075;29;20553;-82
2022/07/18 01:18:24;;;;;;;2.47;1.50;;;13.60;99.90;;;;;;4922998;29;20410;-82
2022/07/18 01:20:49;;;;;;;3.10;1.30;;;13.60;99.90;;;;;;4923027;29;20170;-82
2022/07/18 01:23:15;;;;;;;1.77;1.30;;;13.50;99.90;;;;;;4923017;29;20296;-82
2022/07/18 01:25:40;;;;;;;2.00;1.20;;;13.50;99.90;;;;;;4922648;29;20235;-82
2022/07/18 01:28:06;;;;;;;2.00;1.20;;;13.50;99.90;;;;;;4923163;29;20229;-82
2022/07/18 01:30:31;;;;;;;3.10;1.10;;;13.50;99.90;;;;;;4922838;29;20208;-82
2022/07/18 01:32:59;;;;;;;1.50;0.60;;;13.50;99.90;;;;;;4922937;29;20173;-82
2022/07/18 01:35:26;;;;;;;2.40;0.40;;;13.50;99.90;;;;;;4922890;29;20193;-82
2022/07/18 01:37:53;;;;;;;2.60;1.50;;;13.50;99.90;;;;;;4922850;29;20420;-82
2022/07/18 01:40:19;;;;;;;2.20;1.10;;;13.50;99.90;;;;;;4922276;29;20908;-82
2022/07/18 01:42:44;;;;;;;2.53;1.50;;;13.50;99.90;;;;;;4922812;29;20414;-83
2022/07/18 01:45:11;;;;;;;1.93;0.70;;;13.50;99.90;;;;;;4922819;29;20176;-81
2022/07/18 01:47:37;;;;;;;1.10;0.60;;;13.40;99.90;;;;;;4922166;29;20197;-81
2022/07/18 01:50:04;;;;;;;1.20;0.70;;;13.40;99.90;;;;;;4922603;29;20432;-82
2022/07/18 01:52:30;;;;;;;1.60;0.93;;;13.40;99.90;;;;;;4921456;29;20434;-84
2022/07/18 01:54:55;;;;;;;2.30;1.33;;;13.40;99.90;;;;;;4921113;29;20939;-82
2022/07/18 01:57:21;;;;;;;1.70;0.90;;;13.30;99.90;;;;;;4922619;29;20181;-82
2022/07/18 01:59:46;;;;;;;0.90;0.63;;;13.30;99.90;;;;;;4937197;29;20711;-82
2022/07/18 02:02:12;;;;;;;2.13;1.00;;;13.50;99.90;;;;;;4922579;29;20182;-82
2022/07/18 02:07:21;;;;;;;3.10;1.00;;;13.70;99.90;;;;;;4922633;29;20222;-82
2022/07/18 02:09:47;;;;;;;3.00;1.27;;;13.70;99.90;;;;;;4920124;29;20429;-82
2022/07/18 02:12:13;;;;;;;4.10;0.90;;;13.50;99.90;;;;;;4919589;29;20226;-83
2022/07/18 02:14:38;;;;;;;1.57;1.00;;;13.40;99.90;;;;;;4919628;29;20229;-82
2022/07/18 02:17:05;;;;;;;2.33;1.60;;;13.40;99.90;;;;;;4919504;29;20207;-82
2022/07/18 02:19:30;;;;;;;2.37;1.37;;;13.40;99.90;;;;;;4919498;29;20426;-83
2022/07/18 02:21:56;;;;;;;2.10;1.07;;;13.30;99.90;;;;;;4919520;29;20182;-83
2022/07/18 02:24:22;;;;;;;2.97;1.10;;;13.20;99.90;;;;;;4919275;29;20657;-81
2022/07/18 02:26:47;;;;;;;2.93;0.80;;;13.30;99.90;;;;;;4919116;29;20261;-82
2022/07/18 02:29:13;;;;;;;2.80;1.27;;;13.30;99.90;;;;;;4919322;29;20210;-82
2022/07/18 02:31:38;;;;;;;1.50;0.67;;;13.50;99.90;;;;;;4919213;29;20218;-82
2022/07/18 02:34:09;;;;;;;1.37;0.77;;;13.50;99.90;;;;;;4919200;29;20234;-82
2022/07/18 02:36:37;;;;;;;2.20;0.97;;;13.50;99.90;;;;;;4919153;29;20192;-82
2022/07/18 02:39:03;;;;;;;2.90;1.90;;;13.60;99.90;;;;;;4919172;29;20434;-81
2022/07/18 02:41:28;;;;;;;3.40;0.97;;;13.60;99.90;;;;;;4918814;29;20426;-82
2022/07/18 02:43:54;;;;;;;2.20;1.50;;;13.70;99.90;;;;;;4933784;29;20430;-81
2022/07/18 02:46:19;;;;;;;3.57;2.17;;;13.60;99.90;;;;;;4918617;29;20261;-82
2022/07/18 02:48:45;;;;;;;2.20;1.60;;;13.60;99.90;;;;;;4918962;29;20186;-83
2022/07/18 02:51:10;;;;;;;4.67;2.07;;;13.60;99.90;;;;;;4918884;29;20684;-82
2022/07/18 02:53:35;;;;;;;3.67;1.20;;;13.60;99.90;;;;;;4918916;29;20177;-82
2022/07/18 02:56:01;;;;;;;2.13;1.23;;;13.60;99.90;;;;;;4918491;29;20174;-81
2022/07/18 02:58:26;;;;;;;3.10;2.30;;;13.60;99.90;;;;;;4918865;29;20191;-82
2022/07/18 03:00:52;;;;;;;2.23;0.93;;;13.60;99.90;;;;;;4918775;29;20182;-82
2022/07/18 03:03:17;;;;;;;2.73;1.20;;;13.50;99.90;;;;;;4933370;29;20246;-81
2022/07/18 03:05:43;;;;;;;1.90;0.63;;;13.50;99.90;;;;;;4918712;29;20173;-82
2022/07/18 03:08:08;;;;;;;3.60;1.33;;;13.40;99.90;;;;;;4917344;29;20182;-83
2022/07/18 03:10:34;;;;;;;3.40;1.70;;;13.30;99.90;;;;;;4918025;29;20582;-82
2022/07/18 03:12:59;;;;;;;3.93;1.13;;;13.20;99.90;;;;;;4918516;29;20553;-81
2022/07/18 03:15:25;;;;;;;4.37;1.40;;;13.20;99.90;;;;;;4918467;29;20182;-81
2022/07/18 03:17:51;;;;;;;2.50;1.37;;;13.30;99.90;;;;;;4918518;29;20192;-82
2022/07/18 03:20:16;;;;;;;3.20;1.67;;;13.40;99.90;;;;;;4918432;29;20257;-81
2022/07/18 03:22:41;;;;;;;3.13;1.87;;;13.50;99.90;;;;;;4917919;29;20173;-82
2022/07/18 03:25:07;;;;;;;4.37;2.03;;;13.50;99.90;;;;;;4917924;29;20183;-81
2022/07/18 03:27:33;;;;;;;3.70;2.23;;;13.50;99.90;;;;;;4918316;29;20173;-81
2022/07/18 03:29:58;;;;;;;3.27;2.00;;;13.50;99.90;;;;;;4918246;29;20181;-81
2022/07/18 03:32:24;;;;;;;2.70;1.97;;;13.40;99.90;;;;;;4918148;29;20712;-81
2022/07/18 03:34:49;;;;;;;3.40;1.57;;;13.50;99.90;;;;;;4918114;29;20177;-82
2022/07/18 03:37:15;;;;;;;3.30;1.50;;;13.40;99.90;;;;;;4918169;29;20182;-82
2022/07/18 03:39:40;;;;;;;4.27;2.00;;;13.40;99.90;;;;;;4917721;29;20177;-83
2022/07/18 03:42:06;;;;;;;2.03;0.80;;;13.50;99.90;;;;;;4917968;29;20174;-82
2022/07/18 03:44:32;;;;;;;2.63;2.00;;;13.40;99.90;;;;;;4917993;29;20203;-83
2022/07/18 03:46:57;;;;;;;3.10;1.93;;;13.40;99.90;;;;;;4917548;29;20225;-81
2022/07/18 03:49:22;;;;;;;2.67;0.87;;;13.40;99.90;;;;;;4917737;29;20668;-81
2022/07/18 03:51:48;;;;;;;3.40;2.17;;;13.40;99.90;;;;;;4917753;29;20303;-81
2022/07/18 03:54:14;;;;;;;2.50;1.20;;;13.40;99.90;;;;;;4916213;29;20178;-82
2022/07/18 03:56:39;;;;;;;3.43;2.10;;;13.40;99.90;;;;;;4917675;29;20514;-82
2022/07/18 03:59:05;;;;;;;2.33;1.20;;;13.30;99.90;;;;;;4916512;29;20176;-82
2022/07/18 04:01:30;;;;;;;3.43;2.20;;;13.30;99.90;;;;;;4917623;29;20192;-82
2022/07/18 04:03:56;;;;;;;3.53;1.80;;;13.30;99.90;;;;;;4932224;29;20186;-82
2022/07/18 04:06:21;;;;;;;3.00;2.20;;;13.40;99.90;;;;;;4917589;29;20260;-82
2022/07/18 04:08:47;;;;;;;3.73;2.47;;;13.30;99.90;;;;;;4917544;29;20261;-82
2022/07/18 04:11:12;;;;;;;3.23;1.73;;;13.30;99.90;;;;;;4916807;29;20244;-82
2022/07/18 04:13:38;;;;;;;6.90;2.37;;;13.40;99.90;;;;;;4917416;29;20654;-82
2022/07/18 04:16:04;;;;;;;2.80;1.60;;;13.40;99.90;;;;;;4917455;29;20212;-81
2022/07/18 04:18:29;;;;;;;5.70;1.73;;;13.50;99.90;;;;;;4917430;29;20536;-82
2022/07/18 04:20:55;;;;;;;4.10;2.33;;;13.50;99.90;;;;;;4917362;29;20183;-81
2022/07/18 04:23:20;;;;;;;4.03;1.63;;;13.60;99.90;;;;;;4917315;29;20621;-81
2022/07/18 04:25:46;;;;;;;2.80;1.83;;;13.60;99.90;;;;;;4915717;29;20187;-82
2022/07/18 04:28:13;;;;;;;3.50;1.90;;;13.50;99.90;;;;;;4917218;29;20170;-82
2022/07/18 04:30:40;;;;;;;3.07;1.87;;;13.60;99.90;;;;;;4917158;29;20204;-81
2022/07/18 04:33:08;;;;;;;3.03;1.20;;;13.60;99.90;;;;;;4915444;29;20433;-82
2022/07/18 04:35:37;;;;;;;2.63;1.63;;;13.60;99.90;;;;;;4931414;29;20421;-81
2022/07/18 04:38:04;;;;;;;4.50;2.80;;;13.80;99.90;;;;;;4931675;29;20421;-82
2022/07/18 04:40:29;;;;;;;3.57;1.53;;;13.80;99.90;;;;;;4931284;29;20436;-82
2022/07/18 04:42:55;;;;;;;3.63;2.07;;;13.80;99.90;;;;;;4917034;29;20918;-81
2022/07/18 04:45:23;;;;;;;2.87;1.97;;;13.90;99.90;;;;;;4917124;29;20508;-81
2022/07/18 04:47:50;;;;;;;2.30;1.90;;;13.90;99.90;;;;;;4915394;29;20552;-81
2022/07/18 04:50:15;;;;;;;3.00;1.60;;;13.80;99.90;;;;;;4916896;29;20774;-82
2022/07/18 04:52:44;;;;;;;4.43;2.73;;;13.70;99.90;;;;;;4916921;29;20487;-81
2022/07/18 04:55:11;;;;;;;2.90;1.73;;;13.70;99.90;;;;;;4916574;29;20180;-81
2022/07/18 04:57:38;;;;;;;3.37;2.07;;;13.70;99.90;;;;;;4916887;29;20441;-82
2022/07/18 05:00:06;;;;;;;4.20;2.30;;;13.70;99.90;;;;;;4915552;29;20426;-82
2022/07/18 05:02:31;;;;;;;4.00;2.27;;;13.70;99.90;;;;;;4916917;29;20512;-82
2022/07/18 05:04:57;;;;;;;2.03;1.73;;;13.80;99.90;;;;;;4916869;29;20505;-82
2022/07/18 05:07:22;;;;;;;3.50;2.17;;;13.90;99.90;;;;;;4916847;29;20222;-82
2022/07/18 05:09:48;;;;;;;3.03;2.00;;;14.00;99.90;;;;;;4916216;29;20558;-82
2022/07/18 05:12:13;;;;;;;3.50;1.43;;;14.00;99.90;;;;;;4931240;29;20295;-82
2022/07/18 05:14:39;;;;;;;3.43;1.83;;;14.10;99.90;;;;;;4916888;29;20171;-83
2022/07/18 05:17:04;;;;;;;4.37;1.77;;;14.20;99.90;;;;;;4916751;29;20181;-82
2022/07/18 05:19:30;;;;;;;4.17;2.17;;;14.30;99.90;;;;;;4916735;29;20260;-83
2022/07/18 05:21:55;;;;;;;3.70;1.93;;;14.50;99.90;;;;;;4916604;29;20253;-82
2022/07/18 05:24:21;;;;;;;2.30;1.50;;;14.60;99.90;;;;;;4916348;29;20176;-83
2022/07/18 05:26:46;;;;;;;2.97;2.23;;;14.70;99.90;;;;;;4916659;29;20189;-82
2022/07/18 05:29:15;;;;;;;2.77;1.10;;;14.80;99.90;;;;;;4915388;29;20185;-83
2022/07/18 05:31:41;;;;;;;2.60;0.73;;;15.10;99.90;;;;;;4916536;29;20267;-82
2022/07/18 05:34:07;;;;;;;1.97;1.43;;;15.10;99.90;;;;;;4916585;29;20453;-83
2022/07/18 05:36:32;;;;;;;4.00;2.30;;;15.20;99.90;;;;;;4916536;29;20462;-83
2022/07/18 05:38:58;;;;;;;2.27;1.30;;;15.30;99.90;;;;;;4916252;29;20178;-83
2022/07/18 05:41:23;;;;;;;3.23;1.83;;;15.50;99.90;;;;;;4916514;29;20179;-83
2022/07/18 05:43:49;;;;;;;2.93;0.90;;;15.60;99.90;;;;;;4916519;29;20178;-83
2022/07/18 05:46:14;;;;;;;2.30;1.40;;;15.90;99.90;;;;;;4918878;29;20187;-84
2022/07/18 05:48:40;;;;;;;1.60;1.10;;;16.10;99.90;;;;;;4918801;29;20644;-84
2022/07/18 05:51:07;;;;;;;2.27;1.53;;;16.20;99.90;;;;;;4919842;29;20204;-83
2022/07/18 05:53:32;;;;;;;2.80;1.10;;;16.00;99.90;;;;;;4919998;29;20666;-84
2022/07/18 05:55:58;;;;;;;3.60;1.63;;;16.00;99.90;;;;;;4919449;29;20419;-83
2022/07/18 05:58:23;;;;;;;2.47;1.50;;;16.00;99.90;;;;;;4919874;29;20183;-82
2022/07/18 06:00:49;;;;;;;2.70;1.60;;;15.90;99.90;;;;;;4919891;29;20175;-83
2022/07/18 06:03:14;;;;;;;1.70;1.00;;;16.00;99.90;;;;;;4919802;29;20663;-83
2022/07/18 06:05:40;;;;;;;2.93;1.10;;;16.00;99.90;;;;;;4919780;29;20180;-81
2022/07/18 06:08:06;;;;;;;1.67;1.20;;;16.40;99.90;;;;;;4919644;29;20258;-82
2022/07/18 06:10:32;;;;;;;1.73;0.83;;;16.60;99.90;;;;;;4919011;29;20540;-82
2022/07/18 06:12:58;;;;;;;1.97;0.80;;;16.60;99.90;;;;;;4919646;29;20428;-83
2022/07/18 06:15:23;;;;;;;1.80;0.97;;;16.50;99.90;;;;;;4919758;29;20643;-83
2022/07/18 06:17:49;;;;;;;2.83;1.20;;;16.70;99.90;;;;;;4919606;29;20177;-82
2022/07/18 06:20:15;;;;;;;3.03;1.20;;;16.70;99.90;;;;;;4919519;29;20188;-82
2022/07/18 06:22:41;;;;;;;1.70;1.07;;;17.00;99.90;;;;;;4918111;29;20790;-82
2022/07/18 06:25:07;;;;;;;1.67;1.00;;;17.40;82.50;;;;;;4917776;29;20425;-82
2022/07/18 06:27:33;;;;;;;1.50;0.57;;;17.30;1.00;;;;;;4919410;29;20200;-82
2022/07/18 06:29:59;;;;;;;3.30;1.47;;;17.50;1.00;;;;;;4919351;29;20420;-81
2022/07/18 06:32:24;;;;;;;3.63;2.10;;;17.90;1.00;;;;;;4919183;29;20220;-83
2022/07/18 06:34:50;;;;;;;1.03;0.80;;;18.20;1.00;;;;;;4919240;29;20482;-80
2022/07/18 06:37:15;;;;;;;2.60;1.57;;;18.50;1.00;;;;;;4919096;29;20243;-81
2022/07/18 06:39:41;;;;;;;1.87;1.10;;;18.90;99.90;;;;;;4918675;29;20543;-84
2022/07/18 06:42:07;;;;;;;2.20;1.03;;;19.20;99.90;;;;;;4917937;29;20190;-82
2022/07/18 06:44:32;;;;;;;2.73;0.90;;;19.30;99.90;;;;;;4919305;29;20176;-82
2022/07/18 06:46:59;;;;;;;4.37;1.30;;;19.10;99.90;;;;;;4919378;29;20429;-81
2022/07/18 06:49:25;;;;;;;2.10;1.30;;;20.10;1.00;;;;;;4920368;29;20226;-81
2022/07/18 06:51:51;;;;;;;3.00;1.80;;;20.30;96.10;;;;;;4919135;29;20481;-82
2022/07/18 06:54:17;;;;;;;2.93;1.43;;;21.70;1.00;;;;;;4919298;29;20511;-82
2022/07/18 06:56:42;;;;;;;3.00;1.40;;;21.60;1.00;;;;;;4918776;29;20510;-85
2022/07/18 06:59:08;;;;;;;1.70;0.90;;;20.90;99.90;;;;;;4919266;29;20183;-84
2022/07/18 07:01:33;;;;;;;1.63;0.97;;;20.90;1.00;;;;;;4918962;29;20181;-82
2022/07/18 07:03:59;;;;;;;1.83;1.13;;;20.90;80.40;;;;;;4917597;29;20213;-82
2022/07/18 07:06:25;;;;;;;2.07;1.07;;;21.00;99.90;;;;;;4918795;29;20210;-82
2022/07/18 07:08:50;;;;;;;3.83;2.10;;;20.90;55.20;;;;;;4918456;29;20221;-82
2022/07/18 07:11:16;;;;;;;2.03;0.83;;;20.80;1.00;;;;;;4918504;29;20236;-81
2022/07/18 07:13:42;;;;;;;1.80;1.30;;;20.70;99.90;;;;;;4918623;29;20177;-81
2022/07/18 07:16:07;;;;;;;1.83;0.97;;;20.80;1.00;;;;;;4918600;29;20210;-82
2022/07/18 07:18:33;;;;;;;1.80;1.30;;;21.30;99.90;;;;;;4918578;29;20208;-82
2022/07/18 07:20:59;;;;;;;2.40;1.50;;;23.60;99.90;;;;;;4918501;29;20261;-81
2022/07/18 07:23:25;;;;;;;1.83;0.57;;;25.40;99.90;;;;;;4918483;29;20218;-82
2022/07/18 07:25:50;;;;;;;1.93;0.77;;;23.80;99.90;;;;;;4917985;29;20442;-81
2022/07/18 07:28:16;;;;;;;2.17;0.97;;;23.50;99.90;;;;;;4918208;29;20559;-81
2022/07/18 07:30:42;;;;;;;2.07;1.10;;;24.70;99.90;;;;;;4918282;29;20221;-81
2022/07/18 07:33:09;;;;;;;2.43;1.40;;;25.10;99.90;;;;;;4918294;29;20626;-82
2022/07/18 07:35:34;;;;;;;2.07;1.27;;;25.30;99.90;;;;;;4918161;29;20899;-81
2022/07/18 07:38:00;;;;;;;2.90;1.10;;;26.00;99.90;;;;;;4918121;29;20517;-81
2022/07/18 07:40:28;;;;;;;1.87;0.80;;;26.20;64.70;;;;;;4916083;29;20184;-84
2022/07/18 07:43:08;;;;;;;2.53;1.27;;;25.40;54.90;;;;;;4906502;29;20194;-82
2022/07/18 07:45:34;;;;;;;3.83;0.97;;;23.90;99.90;;;;;;4899510;29;20911;-82
2022/07/18 07:48:00;;;;;;;2.03;1.03;;;24.10;99.90;;;;;;4906989;29;20433;-81
2022/07/18 07:50:25;;;;;;;2.20;1.57;;;24.50;99.90;;;;;;4908408;29;20269;-81
2022/07/18 07:52:51;;;;;;;1.87;0.93;;;25.50;99.90;;;;;;4905927;29;20234;-83
2022/07/18 07:55:16;;;;;;;2.90;1.07;;;26.30;63.70;;;;;;4906234;29;20286;-81
2022/07/18 07:57:42;;;;;;;3.17;1.30;;;24.90;76.90;;;;;;4906819;29;20767;-82
2022/07/18 08:00:09;;;;;;;2.00;1.60;;;24.40;98.00;;;;;;4909027;29;20186;-81
2022/07/18 08:02:38;;;;;;;2.50;1.33;;;24.70;97.00;;;;;;4906763;29;20556;-82
2022/07/18 08:05:04;;;;;;;3.80;1.07;;;25.10;98.30;;;;;;4906181;29;20923;-84
2022/07/18 08:07:29;;;;;;;3.03;1.10;;;27.00;61.00;;;;;;4912419;29;20426;-82
2022/07/18 08:09:55;;;;;;;2.10;1.43;;;27.40;42.80;;;;;;4908118;29;20550;-79
2022/07/18 08:12:20;;;;;;;2.13;1.27;;;26.30;21.20;;;;;;4906168;29;20209;-79
2022/07/18 08:14:46;;;;;;;1.90;1.33;;;27.30;23.00;;;;;;4907556;29;20174;-79
2022/07/18 08:17:11;;;;;;;3.47;1.83;;;27.40;7.20;;;;;;4900691;29;20243;-79
2022/07/18 08:19:43;;;;;;;2.50;1.40;;;26.60;11.00;;;;;;4898494;29;20240;-79
2022/07/18 08:22:08;;;;;;;2.10;1.27;;;25.40;10.90;;;;;;4898413;29;20614;-79
2022/07/18 08:24:34;;;;;;;2.23;1.87;;;24.10;24.20;;;;;;4904380;29;20415;-82
2022/07/18 08:26:59;;;;;;;2.60;1.60;;;23.70;43.80;;;;;;4907639;29;20174;-82
2022/07/18 08:29:24;;;;;;;4.57;2.03;;;25.20;39.00;;;;;;4907805;29;20321;-82
2022/07/18 08:31:50;;;;;;;2.70;1.37;;;26.70;20.20;;;;;;4909852;29;20206;-87
2022/07/18 08:34:15;;;;;;;1.80;1.10;;;27.10;3.00;;;;;;4908451;29;20253;-79
2022/07/18 08:36:41;;;;;;;2.63;1.30;;;27.70;1.00;;;;;;4909488;29;20216;-79
2022/07/18 08:39:06;;;;;;;2.30;1.67;;;27.70;1.00;;;;;;4907957;29;20241;-85
2022/07/18 08:41:33;;;;;;;2.53;1.57;;;27.80;1.00;;;;;;4903620;29;20178;-85
2022/07/18 08:44:05;;;;;;;2.13;1.77;;;29.10;1.00;;;;;;4912448;29;20198;-82
2022/07/18 08:46:32;;;;;;;2.60;1.53;;;29.10;1.00;;;;;;4911638;29;20446;-89
2022/07/18 08:48:57;;;;;;;1.90;1.37;;;28.90;1.00;;;;;;4917229;29;20496;-84
2022/07/18 08:51:23;;;;;;;1.60;1.27;;;28.40;1.00;;;;;;4918695;29;20478;-81
2022/07/18 08:53:51;;;;;;;3.33;2.10;;;27.00;1.00;;;;;;4917832;29;20167;-83
2022/07/18 08:56:17;;;;;;;2.23;1.80;;;25.90;1.00;;;;;;4918772;29;20540;-79
2022/07/18 08:58:44;;;;;;;2.30;1.27;;;26.10;1.00;;;;;;4917681;29;20422;-81
2022/07/18 09:01:09;;;;;;;2.87;1.57;;;27.40;1.00;;;;;;4916168;29;20245;-84
2022/07/18 09:03:35;;;;;;;2.03;1.03;;;27.90;1.00;;;;;;4917922;29;20418;-81
2022/07/18 09:06:04;;;;;;;2.33;1.90;;;29.00;1.00;;;;;;4917602;29;20257;-84
2022/07/18 09:08:30;;;;;;;3.13;1.90;;;28.40;1.00;;;;;;4919090;29;20186;-79
2022/07/18 09:10:58;;;;;;;2.67;1.33;;;28.10;1.00;;;;;;4919602;29;20497;-83
2022/07/18 09:13:33;;;;;;;2.40;1.13;;;28.10;1.00;;;;;;4918184;29;20983;-81
2022/07/18 09:16:06;;;;;;;3.20;1.90;;;27.80;1.00;;;;;;4933340;29;20422;-83
2022/07/18 09:18:52;;;;;;;2.90;1.40;;;27.40;1.00;;;;;;4917938;29;20771;-90
2022/07/18 09:21:20;;;;;;;2.70;1.70;;;28.20;1.00;;;;;;4921261;29;21005;-82
2022/07/18 09:23:49;;;;;;;3.57;1.67;;;27.70;1.00;;;;;;4921164;29;20418;-88
2022/07/18 09:26:42;;;;;;;2.80;1.73;;;28.30;1.00;;;;;;4922633;29;20474;-85
2022/07/18 09:29:10;;;;;;;1.80;1.27;;;28.90;1.00;;;;;;4921055;29;20432;-82
2022/07/18 09:31:36;;;;;;;3.33;1.80;;;29.60;1.00;;;;;;4920655;29;20484;-82
2022/07/18 09:34:03;;;;;;;2.80;1.57;;;29.60;1.00;;;;;;4920417;29;20421;-83
2022/07/18 09:36:29;;;;;;;2.67;1.27;;;29.00;1.00;;;;;;4920248;29;20256;-81
2022/07/18 09:38:55;;;;;;;2.50;1.70;;;29.00;1.00;;;;;;4919921;29;20923;-81
2022/07/18 09:41:30;;;;;;;3.40;1.43;;;30.20;1.00;;;;;;4920116;29;20516;-81
2022/07/18 09:43:55;;;;;;;4.00;2.00;;;30.70;1.00;;;;;;4920200;29;20229;-82
2022/07/18 09:46:21;;;;;;;2.20;1.73;;;30.50;1.00;;;;;;4919981;29;20919;-81
2022/07/18 09:48:47;;;;;;;2.40;1.47;;;29.90;1.00;;;;;;4934709;29;20631;-82
2022/07/18 09:51:13;;;;;;;3.33;2.17;;;29.00;1.00;;;;;;4919778;29;20722;-82
2022/07/18 09:53:41;;;;;;;2.10;1.20;;;28.80;1.00;;;;;;4919634;29;20273;-82
2022/07/18 09:56:10;;;;;;;2.17;1.80;;;28.40;1.00;;;;;;4919812;29;20234;-81
2022/07/18 09:58:41;;;;;;;2.97;1.53;;;29.50;1.00;;;;;;4919815;29;20429;-81
2022/07/18 10:01:09;;;;;;;2.60;1.60;;;29.70;1.00;;;;;;4919838;29;20450;-82
2022/07/18 10:03:36;;;;;;;2.00;1.30;;;29.60;1.00;;;;;;4919632;29;20915;-84
2022/07/18 10:06:02;;;;;;;3.00;1.37;;;30.20;1.00;;;;;;4919792;29;20426;-83
2022/07/18 10:08:30;;;;;;;2.17;1.60;;;28.90;1.00;;;;;;4919395;29;20551;-81
2022/07/18 10:10:59;;;;;;;2.10;1.60;;;28.60;1.00;;;;;;4919412;29;20517;-83
2022/07/18 10:13:25;;;;;;;1.90;1.40;;;29.00;1.00;;;;;;4919564;29;20406;-82
2022/07/18 10:15:51;;;;;;;1.93;1.23;;;28.80;1.00;;;;;;4919508;29;20973;-82
2022/07/18 10:18:19;;;;;;;2.03;1.40;;;29.00;1.00;;;;;;4919588;29;20474;-82
2022/07/18 10:20:55;;;;;;;4.83;1.10;;;29.20;1.00;;;;;;4918278;29;20441;-83
2022/07/18 10:23:25;;;;;;;1.70;1.13;;;29.30;1.00;;;;;;4918071;29;20437;-82
2022/07/18 10:26:13;;;;;;;2.03;1.57;;;28.70;1.00;;;;;;4919287;29;20918;-82
2022/07/18 10:29:00;;;;;;;2.33;1.33;;;28.30;1.00;;;;;;4918149;29;20430;-82
2022/07/18 10:31:31;;;;;;;5.03;1.90;;;28.10;1.00;;;;;;4918043;29;20481;-83
2022/07/18 10:34:10;;;;;;;3.00;1.40;;;28.10;1.00;;;;;;4919198;29;21071;-83
2022/07/18 10:37:00;;;;;;;3.00;1.73;;;28.10;1.00;;;;;;4918059;29;20423;-83
2022/07/18 10:39:34;;;;;;;2.80;1.57;;;28.00;1.00;;;;;;4921117;29;20923;-82
2022/07/18 10:42:01;;;;;;;2.40;1.40;;;29.80;1.00;;;;;;4917915;29;20506;-82
2022/07/18 10:44:30;;;;;;;1.93;1.27;;;30.60;1.00;;;;;;4918147;29;20423;-84
2022/07/18 10:47:02;;;;;;;2.20;1.20;;;31.10;1.00;;;;;;4919272;29;20437;-82
2022/07/18 10:49:49;;;;;;;2.17;1.20;;;31.60;1.00;;;;;;4919058;29;20505;-83
2022/07/18 10:52:29;;;;;;;2.20;1.77;;;30.80;1.00;;;;;;4933098;29;20485;-84
2022/07/18 10:55:08;;;;;;;2.03;1.23;;;31.00;1.00;;;;;;4918745;29;20425;-85
2022/07/18 10:57:36;;;;;;;2.73;1.87;;;30.10;1.00;;;;;;4933382;29;20432;-82
2022/07/18 11:00:14;;;;;;;1.83;1.30;;;29.60;1.00;;;;;;4918915;29;20426;-84
2022/07/18 11:02:47;;;;;;;2.00;1.13;;;29.60;1.00;;;;;;4920118;29;20418;-86
2022/07/18 11:05:24;;;;;;;2.53;0.90;;;30.60;1.00;;;;;;4920604;29;20427;-88
2022/07/18 11:08:12;;;;;;;1.50;1.10;;;30.50;1.00;;;;;;4933857;29;20521;-88
2022/07/18 11:10:41;;;;;;;1.80;1.10;;;31.00;1.00;;;;;;4920949;29;22429;-86
2022/07/18 11:13:25;;;;;;;1.87;1.30;;;31.90;1.00;;;;;;4919313;29;20839;-91
2022/07/18 11:15:56;;;;;;;1.60;0.90;;;31.20;1.00;;;;;;4919676;29;20836;-91
2022/07/18 11:18:22;;;;;;;2.23;1.13;;;30.20;1.00;;;;;;4919298;29;20429;-90
2022/07/18 11:20:48;;;;;;;2.00;1.50;;;30.20;1.00;;;;;;4918329;29;20426;-92
2022/07/18 11:23:22;;;;;;;2.03;1.53;;;30.50;1.00;;;;;;4918224;29;20785;-90
2022/07/18 11:25:51;;;;;;;2.77;1.70;;;30.50;1.00;;;;;;4918836;29;20210;-90
2022/07/18 11:28:18;;;;;;;2.80;1.40;;;30.10;1.00;;;;;;4918764;29;20502;-88
2022/07/18 11:30:44;;;;;;;2.47;1.33;;;29.80;1.00;;;;;;4919364;29;20846;-90
2022/07/18 11:33:28;;;;;;;2.10;1.53;;;29.00;1.00;;;;;;4917752;29;20432;-84
2022/07/18 11:36:06;;;;;;;1.60;1.13;;;29.00;1.00;;;;;;4918509;29;20581;-88
2022/07/18 11:38:32;;;;;;;2.60;1.27;;;28.80;1.00;;;;;;4918191;29;20407;-90
2022/07/18 11:40:57;;;;;;;3.33;1.70;;;28.50;1.00;;;;;;4919108;29;20418;-90
2022/07/18 11:43:24;;;;;;;3.60;1.20;;;28.70;1.00;;;;;;4918448;29;20174;-90
2022/07/18 11:46:03;;;;;;;1.43;1.03;;;28.70;1.00;;;;;;4918793;29;20174;-91
2022/07/18 11:48:29;;;;;;;4.60;1.53;;;28.70;1.00;;;;;;4919080;29;20414;-89
2022/07/18 11:50:55;;;;;;;2.83;1.33;;;28.60;1.00;;;;;;4917557;29;21035;-86
2022/07/18 11:53:20;;;;;;;1.90;1.37;;;29.00;1.00;;;;;;4917982;29;20240;-88
2022/07/18 11:55:48;;;;;;;2.40;1.60;;;29.10;1.00;;;;;;4918502;29;20201;-90
2022/07/18 11:58:15;;;;;;;2.93;1.40;;;29.20;1.00;;;;;;4919222;29;20257;-94
2022/07/18 12:00:42;;;;;;;3.13;1.70;;;29.10;1.00;;;;;;4918192;29;20414;-90
2022/07/18 12:03:10;;;;;;;1.43;1.20;;;29.10;1.00;;;;;;4918152;29;20430;-88
2022/07/18 12:05:40;;;;;;;1.63;0.93;;;29.20;1.00;;;;;;4918056;29;20513;-89
2022/07/18 12:08:34;;;;;;;1.67;1.10;;;29.80;1.00;;;;;;4917908;29;20430;-89
2022/07/18 12:11:12;;;;;;;2.10;1.10;;;30.70;1.00;;;;;;4918581;29;20541;-90
2022/07/18 12:13:46;;;;;;;2.67;1.87;;;30.90;1.00;;;;;;4918671;29;20407;-91
2022/07/18 12:16:24;;;;;;;2.60;1.00;;;30.20;1.00;;;;;;4918681;29;20437;-92
2022/07/18 12:18:55;;;;;;;2.50;1.57;;;29.40;1.00;;;;;;4919799;29;20414;-94
2022/07/18 12:21:21;;;;;;;3.30;1.73;;;29.00;1.00;;;;;;4921947;29;20422;-86
2022/07/18 12:23:46;;;;;;;2.70;1.37;;;29.30;1.00;;;;;;4920947;29;20411;-94
2022/07/18 12:26:31;;;;;;;3.40;1.27;;;29.30;1.00;;;;;;4922431;29;20170;-92
2022/07/18 12:29:09;;;;;;;1.97;1.20;;;29.80;1.00;;;;;;4920825;29;20162;-91
2022/07/18 12:31:45;;;;;;;2.63;1.53;;;31.10;1.00;;;;;;4920660;29;20478;-93
2022/07/18 12:34:15;;;;;;;2.60;1.30;;;31.80;1.00;;;;;;4920833;29;20449;-91
2022/07/18 12:36:51;;;;;;;2.33;1.37;;;31.80;1.00;;;;;;4921352;29;20426;-94
2022/07/18 12:39:31;;;;;;;1.37;1.10;;;32.10;1.00;;;;;;4918663;29;20422;-88
2022/07/18 12:41:58;;;;;;;2.60;1.50;;;32.50;1.00;;;;;;4916630;29;20434;-89
2022/07/18 12:44:25;;;;;;;1.33;1.17;;;33.20;1.00;;;;;;4917907;29;20501;-93
2022/07/18 12:46:50;;;;;;;2.40;1.10;;;33.50;1.00;;;;;;4917583;29;20942;-92
2022/07/18 12:49:16;;;;;;;1.47;0.83;;;33.30;1.00;;;;;;4917636;29;20473;-89
2022/07/18 12:51:41;;;;;;;1.90;1.70;;;33.20;1.00;;;;;;4917689;29;20220;-91
2022/07/18 12:54:07;;;;;;;2.13;1.63;;;33.40;1.00;;;;;;4916748;29;20643;-91
2022/07/18 12:56:32;;;;;;;1.80;1.30;;;32.90;1.00;;;;;;4916953;29;20257;-87